Congaree, South Carolina
Current Conditions -  °F | °C
As of 4:58 AM on Sunday 25 Jan 2015 (Local Time) from KMMT Reporting Station
Clear Clear  
Wind Chill: 32°   Ceiling: Unl
Heat Index: 32°   Visibility: 10mi
Dew Point: 27°   Wind: 0mph
Humidity: 82%   Direction: NA
Pressure: 29.95"   Gusts: NA
Location:  33.9203°N, 80.6788°W
Report Text: KMMT 250958Z AUTO 00000KT 10SM CLR 00/M03 A2995 RMK AO2 SLP146 T00001028
Loading
Personal Weather Stations






























Interactive Weather Map New forecast layout! Learn more

10-Day Weather Forecast

Advertisements
Track Severe Weather on mobile